createdAt,value
2019-02-21T00:00:48.755Z,0
2019-02-21T00:03:28.490Z,0
2019-02-21T00:06:28.966Z,0
2019-02-21T00:09:28.751Z,0
2019-02-21T00:12:28.276Z,0
2019-02-21T00:15:28.754Z,0
2019-02-21T00:18:28.525Z,0
2019-02-21T00:21:29.060Z,0
2019-02-21T00:24:28.700Z,0
2019-02-21T00:27:28.078Z,0
2019-02-21T00:30:35.238Z,0
2019-02-21T00:33:28.187Z,0
2019-02-21T00:36:28.697Z,0
2019-02-21T00:39:28.021Z,0
2019-02-21T00:42:28.535Z,0
2019-02-21T00:45:27.969Z,0
2019-02-21T00:48:28.293Z,0
2019-02-21T00:51:28.724Z,0
2019-02-21T00:54:28.273Z,0
2019-02-21T00:57:28.651Z,0
2019-02-21T01:00:28.117Z,0
2019-02-21T01:03:28.855Z,0
2019-02-21T01:06:28.465Z,0
2019-02-21T01:09:27.945Z,0
2019-02-21T01:12:28.373Z,0
2019-02-21T01:15:28.826Z,0
2019-02-21T01:18:28.579Z,0
2019-02-21T01:21:28.907Z,0
2019-02-21T01:24:28.432Z,0
2019-02-21T01:27:28.229Z,0
2019-02-21T01:30:28.577Z,0
2019-02-21T01:33:28.307Z,0
2019-02-21T01:36:28.783Z,0
2019-02-21T01:39:28.004Z,0
2019-02-21T01:42:28.354Z,0
2019-02-21T01:45:28.958Z,0
2019-02-21T01:48:29.647Z,0
2019-02-21T01:51:28.105Z,0
2019-02-21T01:54:28.543Z,0
2019-02-21T01:57:27.925Z,0
2019-02-21T02:00:28.520Z,0
2019-02-21T02:03:28.801Z,0
2019-02-21T02:06:28.149Z,0
2019-02-21T02:09:28.773Z,0
2019-02-21T02:12:28.243Z,0
2019-02-21T02:15:28.831Z,0
2019-02-21T02:18:28.487Z,0
2019-02-21T02:21:28.946Z,0
2019-02-21T02:24:28.380Z,0
2019-02-21T02:27:28.919Z,0
2019-02-21T02:30:28.568Z,0
2019-02-21T02:33:28.000Z,0
2019-02-21T02:36:28.292Z,0
2019-02-21T02:39:28.675Z,0
2019-02-21T02:42:28.062Z,0
2019-02-21T02:45:28.674Z,0
2019-02-21T02:48:28.225Z,0
2019-02-21T02:51:28.772Z,0
2019-02-21T02:54:28.233Z,0
2019-02-21T02:57:28.893Z,0
2019-02-21T03:00:28.557Z,0
2019-02-21T03:03:28.371Z,0
2019-02-21T03:06:28.975Z,0
2019-02-21T03:09:28.583Z,0
2019-02-21T03:12:28.412Z,0
2019-02-21T03:15:29.140Z,0
2019-02-21T03:18:28.533Z,0
2019-02-21T03:21:27.963Z,0
2019-02-21T03:24:28.672Z,0
2019-02-21T03:27:28.030Z,0
2019-02-21T03:30:28.827Z,0
2019-02-21T03:33:28.400Z,0
2019-02-21T03:36:29.217Z,0
2019-02-21T03:39:28.568Z,0
2019-02-21T03:42:28.205Z,0
2019-02-21T03:45:28.752Z,0
2019-02-21T03:48:28.175Z,0
2019-02-21T03:51:28.668Z,0
2019-02-21T03:54:28.689Z,0
2019-02-21T03:57:28.652Z,0
2019-02-21T04:00:28.526Z,0
2019-02-21T04:03:28.325Z,0
2019-02-21T04:06:28.997Z,0
2019-02-21T04:09:28.469Z,0
2019-02-21T04:12:29.018Z,0
2019-02-21T04:15:28.468Z,0
2019-02-21T04:18:28.279Z,0
2019-02-21T04:21:28.745Z,0
2019-02-21T04:24:28.218Z,0
2019-02-21T04:27:28.788Z,0
2019-02-21T04:30:28.215Z,0
2019-02-21T04:33:28.808Z,0
2019-02-21T04:36:28.519Z,0
2019-02-21T04:39:28.864Z,0
2019-02-21T04:42:28.337Z,0
2019-02-21T04:45:29.134Z,0
2019-02-21T04:48:28.651Z,0
2019-02-21T04:51:28.260Z,0
2019-02-21T04:54:28.646Z,0
2019-02-21T04:57:28.292Z,0
2019-02-21T05:00:28.746Z,0
2019-02-21T05:03:28.139Z,0
2019-02-21T05:06:28.849Z,0
2019-02-21T05:09:28.316Z,0
2019-02-21T05:12:28.938Z,0
2019-02-21T05:15:28.371Z,0
2019-02-21T05:18:29.066Z,0
2019-02-21T05:21:28.537Z,0
2019-02-21T05:24:28.929Z,0
2019-02-21T05:27:33.016Z,0
2019-02-21T05:30:30.152Z,0
2019-02-21T05:34:05.909Z,0
2019-02-21T05:36:37.838Z,0
2019-02-21T05:39:38.686Z,0
2019-02-21T05:42:37.957Z,0
2019-02-21T05:45:36.092Z,0
2019-02-21T05:48:40.231Z,0
2019-02-21T05:51:33.971Z,0
2019-02-21T05:54:40.474Z,0
2019-02-21T05:58:06.422Z,0
2019-02-21T06:00:41.609Z,0
2019-02-21T06:03:37.902Z,0
2019-02-21T06:06:36.880Z,0
2019-02-21T06:09:36.274Z,1
2019-02-21T06:14:42.118Z,1
2019-02-21T06:16:10.779Z,0
2019-02-21T06:20:40.544Z,2
2019-02-21T06:21:36.579Z,2
2019-02-21T06:25:30.639Z,0
2019-02-21T06:27:38.117Z,4
2019-02-21T06:30:34.560Z,5
2019-02-21T06:33:28.456Z,6
2019-02-21T06:36:27.930Z,0
2019-02-21T06:39:28.460Z,0
2019-02-21T06:42:28.957Z,10
2019-02-21T06:45:31.367Z,0
2019-02-21T06:48:28.822Z,0
2019-02-21T06:51:28.518Z,0
2019-02-21T06:54:28.161Z,14
2019-02-21T06:57:34.056Z,17
2019-02-21T07:00:28.583Z,19
2019-02-21T07:03:29.349Z,22
2019-02-21T07:06:32.114Z,4
2019-02-21T07:09:29.016Z,7
2019-02-21T07:12:28.834Z,9
2019-02-21T07:15:28.693Z,32
2019-02-21T07:18:29.072Z,15
2019-02-21T07:21:28.999Z,21
2019-02-21T07:24:31.522Z,25
2019-02-21T07:27:28.621Z,30
2019-02-21T07:30:35.561Z,48
2019-02-21T07:33:29.029Z,27
2019-02-21T07:36:28.738Z,27
2019-02-21T07:39:36.010Z,48
2019-02-21T07:42:34.180Z,47
2019-02-21T07:45:29.015Z,23
2019-02-21T07:48:28.653Z,43
2019-02-21T07:51:28.369Z,24
2019-02-21T07:54:28.071Z,45
2019-02-21T07:57:33.752Z,49
2019-02-21T08:00:28.402Z,34
2019-02-21T08:03:35.786Z,58
2019-02-21T08:06:28.993Z,40
2019-02-21T08:09:28.707Z,61
2019-02-21T08:12:28.236Z,64
2019-02-21T08:15:28.863Z,61
2019-02-21T08:18:28.650Z,43
2019-02-21T08:21:28.674Z,45
2019-02-21T08:24:28.686Z,41
2019-02-21T08:27:28.659Z,42
2019-02-21T08:30:29.353Z,78
2019-02-21T08:33:33.715Z,63
2019-02-21T08:36:28.237Z,87
2019-02-21T08:39:28.640Z,87
2019-02-21T08:42:28.327Z,106
2019-02-21T08:45:31.132Z,68
2019-02-21T08:48:28.726Z,73
2019-02-21T08:51:28.317Z,84
2019-02-21T08:54:28.826Z,113
2019-02-21T08:57:28.425Z,101
2019-02-21T09:00:28.148Z,98
2019-02-21T09:03:31.475Z,124
2019-02-21T09:06:28.224Z,140
2019-02-21T09:09:28.848Z,152
2019-02-21T09:12:28.824Z,138
2019-02-21T09:15:28.672Z,92
2019-02-21T09:18:28.557Z,88
2019-02-21T09:21:28.268Z,75
2019-02-21T09:24:51.814Z,83
2019-02-21T09:27:28.267Z,68
2019-02-21T09:30:28.853Z,111
2019-02-21T09:33:33.554Z,75
2019-02-21T09:36:28.786Z,119
2019-02-21T09:39:29.453Z,113
2019-02-21T09:42:28.795Z,167
2019-02-21T09:45:29.116Z,144
2019-02-21T09:48:28.321Z,171
2019-02-21T09:51:31.751Z,148
2019-02-21T09:54:29.284Z,132
2019-02-21T09:57:28.983Z,130
2019-02-21T10:00:28.595Z,138
2019-02-21T10:03:28.279Z,93
2019-02-21T10:06:28.781Z,112
2019-02-21T10:09:34.457Z,149
2019-02-21T10:12:28.887Z,114
2019-02-21T10:15:31.168Z,143
2019-02-21T10:18:28.430Z,194
2019-02-21T10:21:29.051Z,218
2019-02-21T10:24:28.700Z,202
2019-02-21T10:27:28.274Z,203
2019-02-21T10:30:28.800Z,250
2019-02-21T10:33:28.418Z,238
2019-02-21T10:36:29.225Z,276
2019-02-21T10:39:28.771Z,234
2019-02-21T10:42:28.436Z,144
2019-02-21T10:45:28.914Z,144
2019-02-21T10:48:28.322Z,154
2019-02-21T10:51:29.057Z,212
2019-02-21T10:54:28.789Z,238
2019-02-21T10:57:28.521Z,215
2019-02-21T11:00:29.808Z,203
2019-02-21T11:03:28.526Z,217
2019-02-21T11:06:28.245Z,199
2019-02-21T11:09:28.685Z,178
2019-02-21T11:12:28.225Z,180
2019-02-21T11:15:28.956Z,184
2019-02-21T11:18:28.796Z,187
2019-02-21T11:21:28.334Z,196
2019-02-21T11:24:29.201Z,130
2019-02-21T11:27:28.786Z,127
2019-02-21T11:30:28.634Z,94
2019-02-21T11:33:28.081Z,122
2019-02-21T11:36:28.551Z,121
2019-02-21T11:39:28.096Z,105
2019-02-21T11:42:28.897Z,135
2019-02-21T11:45:28.744Z,218
2019-02-21T11:48:28.142Z,151
2019-02-21T11:51:28.698Z,168
2019-02-21T11:54:39.847Z,157
2019-02-21T11:57:28.481Z,160
2019-02-21T12:00:28.359Z,154
2019-02-21T12:03:29.152Z,195
2019-02-21T12:06:28.941Z,185
2019-02-21T12:09:28.500Z,229
2019-02-21T12:12:28.257Z,291
2019-02-21T12:15:28.935Z,284
2019-02-21T12:18:28.818Z,237
2019-02-21T12:21:28.199Z,192
2019-02-21T12:24:28.719Z,164
2019-02-21T12:27:28.437Z,193
2019-02-21T12:30:29.173Z,211
2019-02-21T12:33:29.093Z,202
2019-02-21T12:36:28.931Z,174
2019-02-21T12:39:28.603Z,175
2019-02-21T12:42:28.455Z,158
2019-02-21T12:45:30.054Z,157
2019-02-21T12:48:28.798Z,166
2019-02-21T12:51:28.285Z,183
2019-02-21T12:54:29.239Z,175
2019-02-21T12:57:29.081Z,162
2019-02-21T13:00:28.589Z,134
2019-02-21T13:03:28.308Z,116
2019-02-21T13:06:29.094Z,128
2019-02-21T13:09:28.814Z,133
2019-02-21T13:12:28.582Z,176
2019-02-21T13:15:28.064Z,185
2019-02-21T13:18:29.628Z,165
2019-02-21T13:21:28.370Z,178
2019-02-21T13:24:29.133Z,158
2019-02-21T13:27:28.685Z,180
2019-02-21T13:30:28.581Z,176
2019-02-21T13:33:28.289Z,155
2019-02-21T13:36:28.915Z,135
2019-02-21T13:39:28.317Z,140
2019-02-21T13:42:28.972Z,127
2019-02-21T13:45:31.354Z,131
2019-02-21T13:48:29.079Z,129
2019-02-21T13:51:28.657Z,130
2019-02-21T13:54:28.096Z,139
2019-02-21T13:57:28.678Z,116
2019-02-21T14:00:28.298Z,133
2019-02-21T14:03:29.137Z,116
2019-02-21T14:06:28.814Z,134
2019-02-21T14:09:28.505Z,114
2019-02-21T14:12:29.183Z,113
2019-02-21T14:15:28.940Z,115
2019-02-21T14:18:28.727Z,129
2019-02-21T14:21:28.217Z,126
2019-02-21T14:24:36.427Z,104
2019-02-21T14:27:28.878Z,103
2019-02-21T14:30:28.416Z,102
2019-02-21T14:33:30.910Z,122
2019-02-21T14:36:32.603Z,97
2019-02-21T14:39:28.205Z,94
2019-02-21T14:42:28.817Z,109
2019-02-21T14:45:28.616Z,104
2019-02-21T14:48:28.191Z,103
2019-02-21T14:51:28.834Z,80
2019-02-21T14:54:29.882Z,74
2019-02-21T14:57:40.187Z,88
2019-02-21T15:00:28.914Z,87
2019-02-21T15:03:35.611Z,66
2019-02-21T15:06:40.471Z,60
2019-02-21T15:09:28.294Z,79
2019-02-21T15:12:28.837Z,58
2019-02-21T15:15:28.556Z,58
2019-02-21T15:18:28.255Z,59
2019-02-21T15:21:29.194Z,54
2019-02-21T15:24:29.187Z,50
2019-02-21T15:27:28.805Z,61
2019-02-21T15:30:28.532Z,36
2019-02-21T15:33:28.387Z,32
2019-02-21T15:36:37.974Z,26
2019-02-21T15:39:28.282Z,41
2019-02-21T15:42:28.954Z,22
2019-02-21T15:45:37.227Z,18
2019-02-21T15:48:28.851Z,39
2019-02-21T15:51:28.411Z,39
2019-02-21T15:54:29.092Z,19
2019-02-21T15:57:28.676Z,34
2019-02-21T16:00:28.452Z,8
2019-02-21T16:03:28.162Z,22
2019-02-21T16:06:28.894Z,1
2019-02-21T16:09:29.986Z,3
2019-02-21T16:12:29.452Z,3
2019-02-21T16:15:29.996Z,3
2019-02-21T16:18:28.922Z,17
2019-02-21T16:21:28.544Z,0
2019-02-21T16:24:28.262Z,0
2019-02-21T16:27:33.950Z,0
2019-02-21T16:30:28.478Z,10
2019-02-21T16:33:29.272Z,9
2019-02-21T16:36:28.805Z,8
2019-02-21T16:39:28.496Z,0
2019-02-21T16:42:28.056Z,5
2019-02-21T16:45:42.201Z,0
2019-02-21T16:48:28.319Z,3
2019-02-21T16:51:28.926Z,0
2019-02-21T16:54:28.387Z,2
2019-02-21T16:57:28.893Z,3
2019-02-21T17:00:42.201Z,0
2019-02-21T17:03:29.231Z,1
2019-02-21T17:06:28.924Z,1
2019-02-21T17:09:28.659Z,0
2019-02-21T17:12:28.459Z,0
2019-02-21T17:15:28.012Z,0
2019-02-21T17:18:28.716Z,0
2019-02-21T17:21:28.274Z,0
2019-02-21T17:24:28.836Z,0
2019-02-21T17:27:28.385Z,0
2019-02-21T17:30:29.004Z,0
2019-02-21T17:33:28.768Z,0
2019-02-21T17:36:29.234Z,0
2019-02-21T17:39:28.196Z,0
2019-02-21T17:42:28.863Z,0
2019-02-21T17:45:28.478Z,0
2019-02-21T17:48:28.926Z,0
2019-02-21T17:51:28.749Z,0
2019-02-21T17:54:28.449Z,0
2019-02-21T17:57:28.139Z,0
2019-02-21T18:00:34.964Z,0
2019-02-21T18:03:28.435Z,0
2019-02-21T18:06:28.933Z,0
2019-02-21T18:09:29.692Z,0
2019-02-21T18:12:28.283Z,0
2019-02-21T18:15:29.143Z,0
2019-02-21T18:18:28.953Z,0
2019-02-21T18:21:28.484Z,0
2019-02-21T18:24:28.216Z,0
2019-02-21T18:27:28.931Z,0
2019-02-21T18:30:28.465Z,0
2019-02-21T18:33:28.134Z,0
2019-02-21T18:36:28.864Z,0
2019-02-21T18:39:28.591Z,0
2019-02-21T18:42:28.421Z,0
2019-02-21T18:45:29.592Z,0
2019-02-21T18:48:28.367Z,0
2019-02-21T18:51:29.299Z,0
2019-02-21T18:54:29.104Z,0
2019-02-21T18:57:28.758Z,0
2019-02-21T19:00:29.734Z,0
2019-02-21T19:03:28.387Z,0
2019-02-21T19:06:28.867Z,0
2019-02-21T19:09:28.381Z,0
2019-02-21T19:12:28.934Z,0
2019-02-21T19:15:30.936Z,0
2019-02-21T19:18:28.797Z,0
2019-02-21T19:21:28.603Z,0
2019-02-21T19:24:28.301Z,0
2019-02-21T19:27:36.886Z,0
2019-02-21T19:30:31.351Z,0
2019-02-21T19:33:29.151Z,0
2019-02-21T19:36:28.982Z,0
2019-02-21T19:39:28.577Z,0
2019-02-21T19:42:28.194Z,0
2019-02-21T19:45:28.826Z,0
2019-02-21T19:48:28.244Z,0
2019-02-21T19:51:29.011Z,0
2019-02-21T19:54:28.673Z,0
2019-02-21T19:57:28.421Z,0
2019-02-21T20:00:29.696Z,0
2019-02-21T20:03:28.279Z,0
2019-02-21T20:06:28.799Z,0
2019-02-21T20:09:29.566Z,0
2019-02-21T20:12:28.290Z,0
2019-02-21T20:15:28.904Z,0
2019-02-21T20:18:28.427Z,0
2019-02-21T20:21:28.189Z,0
2019-02-21T20:24:28.876Z,0
2019-02-21T20:27:28.564Z,0
2019-02-21T20:30:28.094Z,0
2019-02-21T20:33:28.778Z,0
2019-02-21T20:36:28.462Z,0
2019-02-21T20:39:29.224Z,0
2019-02-21T20:42:31.481Z,0
2019-02-21T20:45:28.369Z,0
2019-02-21T20:48:30.579Z,0
2019-02-21T20:51:28.549Z,0
2019-02-21T20:54:28.054Z,0
2019-02-21T20:57:28.665Z,0
2019-02-21T21:00:28.515Z,0
2019-02-21T21:03:28.549Z,0
2019-02-21T21:06:28.385Z,0
2019-02-21T21:09:29.193Z,0
2019-02-21T21:12:28.574Z,0
2019-02-21T21:15:28.298Z,0
2019-02-21T21:18:29.141Z,0
2019-02-21T21:21:28.801Z,0
2019-02-21T21:24:28.281Z,0
2019-02-21T21:27:28.915Z,0
2019-02-21T21:30:28.465Z,0
2019-02-21T21:33:29.327Z,0
2019-02-21T21:36:29.807Z,0
2019-02-21T21:39:28.460Z,0
2019-02-21T21:42:29.037Z,0
2019-02-21T21:45:28.752Z,0
2019-02-21T21:48:28.964Z,0
2019-02-21T21:51:28.685Z,0
2019-02-21T21:54:28.142Z,0
2019-02-21T21:57:28.686Z,0
2019-02-21T22:00:31.272Z,0
2019-02-21T22:03:28.790Z,0
2019-02-21T22:06:28.163Z,0
2019-02-21T22:09:28.734Z,0
2019-02-21T22:12:28.377Z,0
2019-02-21T22:15:28.896Z,0
2019-02-21T22:18:28.317Z,0
2019-02-21T22:21:29.084Z,0
2019-02-21T22:24:28.763Z,0
2019-02-21T22:27:28.423Z,0
2019-02-21T22:30:28.920Z,0
2019-02-21T22:33:28.591Z,0
2019-02-21T22:36:28.207Z,0
2019-02-21T22:39:29.911Z,0
2019-02-21T22:42:28.377Z,0
2019-02-21T22:45:28.900Z,0
2019-02-21T22:48:28.348Z,0
2019-02-21T22:51:28.853Z,0
2019-02-21T22:54:28.616Z,0
2019-02-21T22:57:28.207Z,0
2019-02-21T23:01:37.018Z,0
2019-02-21T23:03:37.086Z,0
2019-02-21T23:06:34.446Z,0
2019-02-21T23:09:41.276Z,0
2019-02-21T23:12:28.862Z,0
2019-02-21T23:15:28.422Z,0
2019-02-21T23:18:28.131Z,0
2019-02-21T23:21:28.963Z,0
2019-02-21T23:24:28.383Z,0
2019-02-21T23:27:28.809Z,0
2019-02-21T23:30:28.458Z,0
2019-02-21T23:33:29.735Z,0
2019-02-21T23:36:28.201Z,0
2019-02-21T23:39:37.997Z,0
2019-02-21T23:42:28.305Z,0
2019-02-21T23:45:28.877Z,0
2019-02-21T23:48:28.584Z,0
2019-02-21T23:51:28.382Z,0
2019-02-21T23:54:28.844Z,0
2019-02-21T23:57:28.376Z,0
